INFORMACIÓN METAR y TAF
METAR FOR LEST
ADDS - METARS form results

(0706 UTC 24 January 2019)
Data provider http://aviationweather.gov/metar/data/
 
METAR text: LEST 240700Z 35010KT 2000 -DZ BR FEW002 BKN004 OVC009 10/09 Q1018 TEMPO 3000
Conditions at: LEST (SANTIAGO/LABACOL, ES) observed 0700 UTC 24 January 2019
Temperature: 10.0°C (50°F)
Dewpoint: 9.0°C (48°F) [RH = 93%]
Pressure (altimeter): 30.06 inches Hg (1018.0 mb)
Winds: from the N (350 degrees) at 12 MPH (10 knots; 5.1 m/s)
Visibility: 1.24 miles (2.00 km)
Ceiling: 400 feet AGL
Clouds: few clouds at 200 feet AGL
broken clouds at 400 feet AGL
overcast cloud deck at 900 feet AGL
Weather: -DZ BR  (light drizzle, mist)

METAR text: LEST 240630Z 35014KT 1700 -DZ BR FEW002 BKN004 OVC009 10/10 Q1017 TEMPO 3000
Conditions at: LEST (SANTIAGO/LABACOL, ES) observed 0630 UTC 24 January 2019
Temperature: 10.0°C (50°F)
Dewpoint: 10.0°C (50°F) [RH = 100%]
Pressure (altimeter): 30.03 inches Hg (1017.0 mb)
Winds: from the N (350 degrees) at 16 MPH (14 knots; 7.2 m/s)
Visibility: 1.06 miles (1.71 km)
Ceiling: 400 feet AGL
Clouds: few clouds at 200 feet AGL
broken clouds at 400 feet AGL
overcast cloud deck at 900 feet AGL
Weather: -DZ BR  (light drizzle, mist)

METAR text: LEST 240622Z 35015KT 1800 -DZ BR FEW002 BKN004 BKN009 10/10 Q1017 TEMPO 3000
Conditions at: LEST (SANTIAGO/LABACOL, ES) observed 0622 UTC 24 January 2019
Temperature: 10.0°C (50°F)
Dewpoint: 10.0°C (50°F) [RH = 100%]
Pressure (altimeter): 30.03 inches Hg (1017.0 mb)
Winds: from the N (350 degrees) at 17 MPH (15 knots; 7.7 m/s)
Visibility: 1.12 miles (1.80 km)
Ceiling: 400 feet AGL
Clouds: few clouds at 200 feet AGL
broken clouds at 400 feet AGL
broken clouds at 900 feet AGL
Weather: -DZ BR  (light drizzle, mist)

Forecast for: LEST (SANTIAGO/LABACOL, ES)
Text: TAF LEST 240500Z 2406/2506 36009KT 8000 SCT005 BKN015 TX13/2414Z TN10/2406Z
Forecast period: 0600 UTC 24 January 2019 to 0600 UTC 25 January 2019
Forecast type: FROM: standard forecast or significant change
Winds: from the N (360 degrees) at 10 MPH (9 knots; 4.6 m/s)
Visibility: 5 miles (8 km)
Ceiling: 1500 feet AGL
Clouds: scattered clouds at 500 feet AGL
broken clouds at 1500 feet AGL
Weather: no significant weather forecast for this period
Text: TEMPO 2406/2418 36015G25KT
Forecast period: 0600 to 1800 UTC 24 January 2019
Forecast type: TEMPORARY: The following changes expected for less than half the time period
Winds: from the N (360 degrees) at 17 MPH (15 knots; 7.7 m/s)
gusting to 29 MPH (25 knots; 12.9 m/s)
Visibility: missing
Ceiling: unknown
Clouds: missing
Weather: no significant weather forecast for this period
Text: TEMPO 2406/2418 3000 -RADZ BKN005 BKN010 BKN014
Forecast period: 0600 to 1800 UTC 24 January 2019
Forecast type: TEMPORARY: The following changes expected for less than half the time period
Visibility: 1.86 miles (2.99 km)
Ceiling: 500 feet AGL
Clouds: broken clouds at 500 feet AGL
broken clouds at 1000 feet AGL
broken clouds at 1400 feet AGL
Weather: -RA -DZ  (light rain, light drizzle)
Text: TEMPO 2406/2412 1500 -RADZ BCFG BKN002 BKN005
Forecast period: 0600 to 1200 UTC 24 January 2019
Forecast type: TEMPORARY: The following changes expected for less than half the time period
Visibility: 0.93 miles (1.50 km)
Ceiling: 200 feet AGL
Clouds: broken clouds at 200 feet AGL
broken clouds at 500 feet AGL
Weather: -RA -DZ BCFG  (light rain, light drizzle, patches of fog)
Text: TEMPO 2418/2506 3000 BR BKN005 BKN010
Forecast period: 1800 UTC 24 January 2019 to 0600 UTC 25 January 2019
Forecast type: TEMPORARY: The following changes expected for less than half the time period
Visibility: 1.86 miles (2.99 km)
Ceiling: 500 feet AGL
Clouds: broken clouds at 500 feet AGL
broken clouds at 1000 feet AGL
Weather: BR  (mist)

 MAPA DE AEROPUERTO

 INFORMACIÓN DE PISTA
Pista 17 Longitud 10499 ft Ancho 148 ft
Elevación 1170 ft Umbral desplazado 394 ft Rumbo de pista 166
Pista 35 Longitud 10499 ft Ancho 148 ft
Elevación 1196 ft Umbral desplazado 0 ft Rumbo de pista 346

 FRECUANCIAS DEL AEROPUERTO
Tipo APP Nombre APP Frecuencia 118.2 MHZ
Tipo GND Nombre GND Frecuencia 121.7 MHZ
Tipo TWR Nombre TWR Frecuencia 118.75 MHZ

 RADIO AYUDAS DEL AEROPUERTO
Tipo NDB Nombre Santiago Frecuencia 417 KHZ
Tipo VOR-DME Nombre Santiago Frecuencia 116400 KHZ



Powered by Virtual Airlines Manager [v2.6.2]